Tiempo atmosférico en la estación meteorológica de Sant Pau De Seguries, Girona (863 m.)



Fecha
DESCASC
Temp. máxima en grados centígrados (hora)
DESCASC
Temp. mínima en grados centígrados (hora)
DESCASC
Temp. media en grados centígrados
DESCASC
Racha de viento máxima en m/sg (hora)
DESCASC
Velocidad máxima media en intervalos de 10 minutos(hora)
DESCASC
Precipitaciones diarias en mm
DESCASC
Precipitaciones de 00:00 a 06:00 en mm
DESCASC
Precipitaciones de 06:00 a 12:00 en mm
DESCASC
Precipitaciones de 12:00 a 18:00 en mm
DESCASC
Precipitaciones de 18:00 a 24:00 en mm
DESCASC
25-04-2019 -- (--) -- (--) -- -- (--) -- (--) -- 0.2 0.2 -- 0
24-04-2019 12.9 (15:50) 4.7 (07:30) 8.8 17.22 (14:20) 7.78 (13:50) 1 0.2 0.4 0.2 0.2
23-04-2019 13.6 (16:50) 8.6 (04:20) 11.1 10.83 (17:40) 4.17 (17:40) 1.4 0.4 0.4 0.4 0.2
22-04-2019 11.4 (16:10) 8.9 (00:00) 10.1 10.56 (07:40) 5.83 (07:40) 0.6 0 0.2 0 0.4
21-04-2019 12.3 (15:40) 5.8 (00:00) 9.1 11.39 (00:50) 6.11 (15:20) 4.8 3 1.8 0 0
20-04-2019 14.2 (11:40) 5.9 (00:00) 10 11.94 (11:40) 5.83 (11:20) 4.2 0 0 0 4.2
19-04-2019 15 (12:00) 9.4 (00:00) 12.2 10.28 (08:20) 5.28 (13:10) 0 0 0 0 0
18-04-2019 14.6 (13:10) 7.2 (00:00) 10.9 8.61 (15:50) 4.17 (14:50) 0 0 0 0 0
17-04-2019 17.5 (15:30) 6.1 (00:00) 11.8 8.61 (11:30) 4.17 (06:10) 0.2 0.2 0 0 0
16-04-2019 12.3 (15:40) 5.3 (00:00) 8.8 6.11 (00:10) 3.06 (00:10) 3 2.8 0 0 0.2
15-04-2019 14.2 (15:00) 0.9 (00:00) 7.5 6.94 (14:10) 3.89 (14:20) 0 0 0 0 0
14-04-2019 14.7 (15:50) 2.5 (00:00) 8.6 4.72 (13:10) 3.06 (18:10) 0 0 0 0 0
13-04-2019 17.2 (15:30) -2.8 (-00:0) 7.2 6.67 (16:20) 3.06 (16:20) 0 0 0 0 0
12-04-2019 17.8 (16:10) 2.5 (00:00) 10.1 7.5 (14:20) 3.89 (14:20) 0 0 0 0 0
11-04-2019 12.5 (14:00) 2.2 (00:00) 7.4 9.17 (17:20) 3.33 (14:40) 0 0 0 0 0
10-04-2019 14.1 (16:40) -0.5 (-00:0) 6.8 8.06 (14:10) 3.89 (14:10) 0 0 0 0 0
09-04-2019 9.4 (11:50) 1.7 (00:00) 5.5 8.61 (06:00) 3.33 (17:20) 15 3 5 6.8 0.2
08-04-2019 14.3 (14:40) -0.3 (00:00) 7 6.39 (09:50) 3.06 (17:50) 1 0 0 0 1
07-04-2019 -- (--) -- (--) -- -- (--) -- (--) -- -- 0 0.2 1.4
06-04-2019 10.2 (16:00) 2.7 (00:00) 6.4 9.72 (13:10) 5 (13:10) 2.2 2.2 0 0 0
05-04-2019 10.2 (16:30) -1.1 (-00:0) 4.5 8.61 (11:40) 5 (06:00) 5.8 0 0 0.2 5.6
04-04-2019 8.7 (15:50) -0.8 (-00:0) 3.9 7.22 (05:10) 3.06 (05:00) 0.2 0.2 0 0 0
03-04-2019 11 (14:10) 1.3 (00:00) 6.1 11.94 (12:50) 5 (13:40) 14.2 0.4 3.6 0.6 9.6
02-04-2019 13.5 (13:40) 1.5 (00:00) 7.5 7.5 (16:10) 3.33 (00:50) 8.8 0 0 8 0.8
01-04-2019 16.2 (15:20) 1.7 (00:00) 9 6.39 (14:30) 3.06 (15:00) 0 0 0 0 0
31-03-2019 12 (17:50) -0.6 (-00:0) 5.7 5.28 (14:30) 2.78 (19:00) 0 0 0 0 0
30-03-2019 13.8 (15:10) -4.3 (-00:0) 4.8 7.22 (16:10) 3.33 (09:50) 0 0 0 0 0
29-03-2019 13.3 (14:30) -1.4 (-00:0) 6 6.39 (14:50) 2.78 (10:50) 0 0 0 0 0
28-03-2019 15.1 (15:30) -3.6 (-00:0) 5.8 7.22 (16:10) 3.61 (16:30) 0 0 0 0 0
27-03-2019 15.3 (15:00) -5.1 (-00:0) 5.1 7.22 (17:30) 3.61 (17:30) 0 0 0 0 0

Gráficas

Temp. máximas Temp. mínimas Temp. medias Precipitaciones Rachas de viento máximas Velocidades máximas media en intervalos de 10 minutos

Datos horarios

Fecha y hora oficial Temperatura (ºC) Velocidad del viento (km/h) Dirección del viento Racha (km/h) Dirección de racha Precipitación (mm) Presión (hPa) Tendencia (hPa) Humedad (%)
2019-04-25 23:00:00 5.6 7 Sudoeste 18 Sudoeste 0 -- -- 99
2019-04-25 22:00:00 6.2 8 Sudoeste 22 Sudoeste 0 -- -- 98
2019-04-25 21:00:00 6.7 8 Oeste 17 Oeste 0 -- -- 94
2019-04-25 20:00:00 7.7 9 Sudoeste 32 Oeste 0 -- -- 92
2019-04-25 19:00:00 8.8 15 Sudoeste 34 Oeste 0 -- -- 85
2019-04-25 18:00:00 9.3 12 Sudoeste 37 Oeste 0.2 -- -- 91
2019-04-25 17:00:00 12.8 15 Sudoeste 35 Sudoeste 0 -- -- 68
2019-04-25 16:00:00 12.4 17 Sudoeste 43 Sudoeste 0 -- -- 74
2019-04-25 15:00:00 9.6 19 Sudoeste 41 Sudoeste 0 -- -- 89
2019-04-25 14:00:00 8.2 24 Sudoeste 55 Sudoeste 0 -- -- 86
2019-04-25 13:00:00 -- -- -- -- -- -- -- -- --
2019-04-25 12:00:00 12 22 Sudoeste 54 Sudoeste 0.2 -- -- 76
2019-04-25 11:00:00 11.3 22 Sudoeste 50 Sudoeste 0 -- -- 85
2019-04-25 10:00:00 9.9 22 Sudoeste 50 Sudoeste 0 -- -- 97
2019-04-25 09:00:00 9.3 18 Sudoeste 51 Sudoeste 0 -- -- 99
2019-04-25 08:00:00 8.9 14 Sudoeste 40 Sudoeste 0 -- -- 100
2019-04-25 07:00:00 8.7 16 Sudoeste 36 Sur 0 -- -- 100
2019-04-25 06:00:00 8.3 14 Sudoeste 38 Oeste 0.2 -- -- 100
2019-04-25 05:00:00 7.8 12 Sudoeste 32 Sudoeste 0 -- -- 100
2019-04-25 04:00:00 7 11 Sudoeste 28 Oeste 0 -- -- 99
2019-04-25 03:00:00 6.8 5 Sudoeste 21 Sudoeste 0 -- -- 98
2019-04-25 02:00:00 7.1 5 Sudoeste 27 Oeste 0 -- -- 91
2019-04-25 01:00:00 8.1 10 Sudoeste 28 Sudoeste 0 -- -- 76
2019-04-25 00:00:00 8.4 9 Sudoeste 24 Sur 0 -- -- 72
2019-04-24 23:00:00 8.5 10 Sudoeste 29 Sudoeste 0 -- -- 73
2019-04-24 22:00:00 8.6 12 Sudoeste 35 Sudoeste 0.2 -- -- 70
2019-04-24 21:00:00 9.4 13 Sudoeste 39 Sudoeste 0 -- -- 64
2019-04-24 20:00:00 10.2 11 Sudoeste 37 Sudoeste 0 -- -- 68
2019-04-24 19:00:00 11.1 11 Sudoeste 35 Sur 0 -- -- 62
2019-04-24 18:00:00 12.1 18 Sudoeste 45 Sudoeste 0 -- -- 56
2019-04-24 17:00:00 11.4 18 Sudoeste 50 Sudoeste 0.2 -- -- 58
2019-04-24 16:00:00 12.5 23 Sudoeste 48 Oeste 0 -- -- 49
2019-04-24 15:00:00 12.6 22 Sudoeste 62 Oeste 0 -- -- 50
2019-04-24 14:00:00 11.3 28 Sudoeste 60 Oeste 0 -- -- 54
2019-04-24 13:00:00 10.5 23 Sudoeste 45 Oeste 0 -- -- 61
2019-04-24 12:00:00 10.2 15 Sudoeste 35 Oeste 0.2 -- -- 66
2019-04-24 11:00:00 9.6 16 Sudoeste 33 Oeste 0 -- -- 72
2019-04-24 10:00:00 7.6 15 Sudoeste 31 Sudoeste 0 -- -- 88
2019-04-24 09:00:00 6.6 14 Sudoeste 29 Sudoeste 0 -- -- 97
2019-04-24 08:00:00 5.2 8 Sudoeste 19 Oeste 0.2 -- -- 100
2019-04-24 07:00:00 4.9 6 Sudoeste 12 Sur 0 -- -- 98
2019-04-24 06:00:00 5.8 2 Sur 45 Oeste 0 -- -- 96
2019-04-24 05:00:00 8.2 4 Sudeste 10 Sur 0 -- -- 91
2019-04-24 04:00:00 8.6 4 Sur 10 Sudoeste 0 -- -- 92
2019-04-24 03:00:00 9.1 5 Sudoeste 13 Sudoeste 0 -- -- 90
2019-04-24 02:00:00 9.3 4 Sur 15 Sudoeste 0.2 -- -- 94
2019-04-24 01:00:00 9.4 4 Sur 17 Sudoeste 0 -- -- 94
2019-04-24 00:00:00 9.4 6 Sudoeste 22 Sudoeste 0 -- -- 96
2019-04-23 23:00:00 9.1 4 Sudoeste 18 Sudoeste 0 -- -- 97
2019-04-23 22:00:00 9.3 9 Sudoeste 24 Sudoeste 0 -- -- 99
2019-04-23 21:00:00 9.1 5 Sudoeste 12 Oeste 0.2 -- -- 97
2019-04-23 20:00:00 10.1 4 Sudoeste 9 Sudoeste 0 -- -- 94
2019-04-23 19:00:00 10.4 4 Sur 19 Sudoeste 0 -- -- 88
2019-04-23 18:00:00 10.4 9 Sudoeste 39 Oeste 0 -- -- 90
2019-04-23 17:00:00 13.6 4 Sudoeste 12 Oeste 0.2 -- -- 85
2019-04-23 16:00:00 12.1 6 Sur 15 Sur 0 -- -- 90
2019-04-23 15:00:00 12.2 3 Nordeste 12 Sur 0 -- -- 93
2019-04-23 14:00:00 12.5 6 Sur 15 Sur 0.2 -- -- 83
2019-04-23 13:00:00 13.3 5 Este 15 Nordeste 0 -- -- 73
2019-04-23 12:00:00 13.1 6 Este 15 Este 0 -- -- 74
2019-04-23 11:00:00 13.4 6 Este 13 Este 0.2 -- -- 74
2019-04-23 10:00:00 11.7 6 Sudeste 13 Sudeste 0 -- -- 75
2019-04-23 09:00:00 9.8 7 Este 13 Este 0 -- -- 85
2019-04-23 08:00:00 8.7 2 Nordeste 12 Nordeste 0 -- -- 95
2019-04-23 07:00:00 9.2 8 Nordeste 16 Norte 0.2 -- -- 92
2019-04-23 06:00:00 9.3 2 Nordeste 14 Este 0 -- -- 92
2019-04-23 05:00:00 8.6 4 Sur 8 Sudeste 0 -- -- 99
2019-04-23 04:00:00 8.8 0 Calma 4 Sur 0.2 -- -- 96
2019-04-23 03:00:00 9.1 2 Norte 9 Este 0 -- -- 93
2019-04-23 02:00:00 9.2 5 Nordeste 14 Nordeste 0 -- -- 91
2019-04-23 01:00:00 9.2 6 Este 19 Nordeste 0.2 -- -- 91
2019-04-23 00:00:00 9.2 10 Nordeste 25 Nordeste 0 -- -- 91
2019-04-22 23:00:00 9.1 10 Nordeste 23 Nordeste 0.2 -- -- 88
2019-04-22 22:00:00 8.9 12 Nordeste 29 Nordeste 0.2 -- -- 87
2019-04-22 21:00:00 10.1 10 Nordeste 26 Nordeste 0 -- -- 73
2019-04-22 20:00:00 10.3 12 Nordeste 25 Este 0 -- -- 69
2019-04-22 19:00:00 10.4 13 Nordeste 31 Este 0 -- -- 68
2019-04-22 18:00:00 10.5 13 Nordeste 26 Nordeste 0 -- -- 71
2019-04-22 17:00:00 11.1 17 Nordeste 31 Nordeste 0 -- -- 66
2019-04-22 16:00:00 11.3 14 Nordeste 35 Este 0 -- -- 65
2019-04-22 15:00:00 10.9 16 Nordeste 35 Nordeste 0 -- -- 65
2019-04-22 14:00:00 10.9 14 Nordeste 30 Nordeste 0 -- -- 66
2019-04-22 13:00:00 10.2 16 Nordeste 34 Este 0 -- -- 72
2019-04-22 12:00:00 10.7 16 Nordeste 34 Nordeste 0 -- -- 72
2019-04-22 11:00:00 11.2 13 Nordeste 31 Sudeste 0.2 -- -- 72
2019-04-22 10:00:00 9.9 11 Norte 31 Nordeste 0 -- -- 68
2019-04-22 09:00:00 10.1 15 Nordeste 35 Nordeste 0 -- -- 65
2019-04-22 08:00:00 10.1 18 Nordeste 38 Nordeste 0 -- -- 60
2019-04-22 07:00:00 10.2 12 Nordeste 35 Nordeste 0 -- -- 58
2019-04-22 06:00:00 10.1 13 Nordeste 34 Nordeste 0 -- -- 61
2019-04-22 05:00:00 10.2 16 Nordeste 32 Nordeste 0 -- -- 60
2019-04-22 04:00:00 10 13 Nordeste 28 Nordeste 0 -- -- 62
2019-04-22 03:00:00 10.2 13 Nordeste 33 Nordeste 0 -- -- 59
2019-04-22 02:00:00 10.7 17 Nordeste 37 Nordeste 0 -- -- 55
2019-04-22 01:00:00 10.5 16 Nordeste 34 Nordeste 0 -- -- 55
2019-04-22 00:00:00 10.1 15 Nordeste 31 Nordeste 0 -- -- 62
2019-04-21 23:00:00 10.4 15 Nordeste 32 Norte 0 -- -- 65
2019-04-21 22:00:00 9.9 13 Nordeste 32 Nordeste 0 -- -- 67
2019-04-21 21:00:00 10.1 14 Nordeste 33 Nordeste 0 -- -- 66
2019-04-21 20:00:00 10.5 16 Nordeste 33 Nordeste 0 -- -- 69
2019-04-21 19:00:00 11.1 15 Nordeste 32 Nordeste 0 -- -- 67
2019-04-21 18:00:00 11.6 18 Nordeste 36 Nordeste 0 -- -- 63
2019-04-21 17:00:00 10.9 17 Nordeste 38 Nordeste 0 -- -- 69
2019-04-21 16:00:00 11.7 19 Nordeste 36 Nordeste 0 -- -- 63
2019-04-21 15:00:00 12.2 15 Nordeste 32 Nordeste 0 -- -- 61
2019-04-21 14:00:00 10 10 Nordeste 32 Nordeste 0 -- -- 69
2019-04-21 13:00:00 9.5 13 Nordeste 32 Nordeste 0 -- -- 71
2019-04-21 12:00:00 8.8 14 Nordeste 31 Nordeste 0 -- -- 79
2019-04-21 11:00:00 9.4 14 Nordeste 37 Este 0.2 -- -- 71
2019-04-21 10:00:00 9.4 15 Nordeste 35 Nordeste 0.4 -- -- 68
2019-04-21 09:00:00 8.1 14 Nordeste 33 Norte 0.4 -- -- 76
2019-04-21 08:00:00 8.1 14 Nordeste 28 Nordeste 0.4 -- -- 80
2019-04-21 07:00:00 8.5 14 Nordeste 35 Nordeste 0.4 -- -- 80
2019-04-21 06:00:00 8.4 16 Nordeste 32 Nordeste 0.2 -- -- 78
2019-04-21 05:00:00 8.9 12 Nordeste 34 Nordeste 0.2 -- -- 73
2019-04-21 04:00:00 9.1 16 Nordeste 35 Nordeste 0.4 -- -- 70
2019-04-21 03:00:00 8.4 13 Nordeste 33 Norte 0.6 -- -- 75
2019-04-21 02:00:00 6.9 12 Nordeste 33 Nordeste 0.8 -- -- 86
2019-04-21 01:00:00 6.1 15 Norte 41 Norte 0.8 -- -- 90
2019-04-21 00:00:00 6 9 Norte 23 Norte 1 -- -- 89
2019-04-20 23:00:00 6.5 7 Nordeste 14 Nordeste 2.4 -- -- 97
2019-04-20 22:00:00 7 9 Este 29 Sudeste 0.8 -- -- 91
2019-04-20 21:00:00 10.4 10 Nordeste 20 Este 0 -- -- 56
2019-04-20 20:00:00 10.6 7 Nordeste 21 Nordeste 0 -- -- 57
2019-04-20 19:00:00 11.3 10 Nordeste 28 Nordeste 0 -- -- 53
2019-04-20 18:00:00 11 14 Este 32 Sudeste 0 -- -- 63
2019-04-20 17:00:00 12.6 15 Este 32 Este 0 -- -- 53
2019-04-20 16:00:00 12.6 17 Este 36 Este 0 -- -- 53
2019-04-20 15:00:00 13.4 19 Nordeste 33 Nordeste 0 -- -- 49
2019-04-20 14:00:00 13.6 17 Nordeste 39 Nordeste 0 -- -- 50
2019-04-20 13:00:00 13.6 19 Nordeste 39 Este 0 -- -- 50
2019-04-20 12:00:00 13.5 17 Nordeste 43 Nordeste 0 -- -- 50
2019-04-20 11:00:00 14.1 17 Este 33 Este 0 -- -- 50
2019-04-20 10:00:00 12.2 12 Nordeste 32 Nordeste 0 -- -- 54
2019-04-20 09:00:00 11.8 18 Nordeste 35 Nordeste 0 -- -- 51
2019-04-20 08:00:00 6.9 7 Nordeste 18 Nordeste 0 -- -- 64
2019-04-20 07:00:00 6.1 8 Nordeste 18 Norte 0 -- -- 65
2019-04-20 06:00:00 6.3 9 Nordeste 17 Norte 0 -- -- 64
2019-04-20 05:00:00 6.7 8 Nordeste 17 Norte 0 -- -- 60
2019-04-20 04:00:00 6.8 6 Norte 15 Norte 0 -- -- 61
2019-04-20 03:00:00 8.2 9 Nordeste 19 Nordeste 0 -- -- 56
2019-04-20 02:00:00 8.8 8 Nordeste 17 Nordeste 0 -- -- 57
2019-04-20 01:00:00 8.6 9 Nordeste 16 Nordeste 0 -- -- 55
2019-04-20 00:00:00 10.9 10 Nordeste 20 Nordeste 0 -- -- 40
2019-04-19 23:00:00 11.6 11 Nordeste 22 Nordeste 0 -- -- 39
2019-04-19 22:00:00 12.1 10 Nordeste 23 Nordeste 0 -- -- 41
2019-04-19 21:00:00 12 11 Nordeste 23 Nordeste 0 -- -- 48
2019-04-19 20:00:00 11.5 8 Este 21 Este 0 -- -- 67
2019-04-19 19:00:00 13.4 10 Este 22 Este 0 -- -- 58
2019-04-19 18:00:00 14.7 10 Este 23 Este 0 -- -- 51
2019-04-19 17:00:00 14.1 10 Este 21 Este 0 -- -- 48
2019-04-19 16:00:00 12.9 12 Este 31 Sudeste 0 -- -- 46
2019-04-19 15:00:00 14.1 13 Este 33 Nordeste 0 -- -- 46
2019-04-19 14:00:00 14.6 19 Este 34 Nordeste 0 -- -- 42
2019-04-19 13:00:00 14.7 18 Nordeste 36 Nordeste 0 -- -- 44
2019-04-19 12:00:00 15 17 Este 36 Este 0 -- -- 41
2019-04-19 11:00:00 14.2 15 Nordeste 36 Nordeste 0 -- -- 46
2019-04-19 10:00:00 12.8 18 Nordeste 37 Nordeste 0 -- -- 46
2019-04-19 09:00:00 12.2 16 Nordeste 37 Nordeste 0 -- -- 48
2019-04-19 08:00:00 12.1 17 Nordeste 32 Nordeste 0 -- -- 48
2019-04-19 07:00:00 11.6 12 Nordeste 24 Nordeste 0 -- -- 46
2019-04-19 06:00:00 11.8 13 Nordeste 28 Nordeste 0 -- -- 46
2019-04-19 05:00:00 11.5 13 Nordeste 36 Norte 0 -- -- 53
2019-04-19 04:00:00 10.7 12 Nordeste 27 Este 0 -- -- 57
2019-04-19 03:00:00 10.3 13 Norte 32 Nordeste 0 -- -- 59
2019-04-19 02:00:00 9.9 13 Nordeste 26 Norte 0 -- -- 64
2019-04-19 01:00:00 9.9 13 Nordeste 24 Nordeste 0 -- -- 63
2019-04-19 00:00:00 9.9 12 Nordeste 22 Nordeste 0 -- -- 60
2019-04-18 23:00:00 10.3 11 Nordeste 24 Nordeste 0 -- -- 59
2019-04-18 22:00:00 10.5 9 Nordeste 22 Nordeste 0 -- -- 56
2019-04-18 21:00:00 10.4 12 Nordeste 23 Nordeste 0 -- -- 58
2019-04-18 20:00:00 11 9 Nordeste 17 Este 0 -- -- 58
2019-04-18 19:00:00 12 8 Este 20 Este 0 -- -- 57
2019-04-18 18:00:00 12.6 11 Este 26 Este 0 -- -- 54
2019-04-18 17:00:00 12.4 10 Este 29 Sudeste 0 -- -- 61
2019-04-18 16:00:00 12.5 14 Sudeste 31 Sudeste 0 -- -- 67
2019-04-18 15:00:00 12.5 11 Sudeste 26 Este 0 -- -- 66
2019-04-18 14:00:00 13.7 12 Sudeste 21 Sudeste 0 -- -- 62
2019-04-18 13:00:00 14.5 10 Este 18 Sudeste 0 -- -- 59
2019-04-18 12:00:00 12.5 7 Sur 17 Sur 0 -- -- 60
2019-04-18 11:00:00 11.4 6 Este 13 Este 0 -- -- 75
2019-04-18 10:00:00 9.4 5 Nordeste 10 Nordeste 0 -- -- 94
2019-04-18 09:00:00 8.2 6 Nordeste 15 Nordeste 0 -- -- 100
2019-04-18 08:00:00 7.4 2 Nordeste 7 Nordeste 0 -- -- 100
2019-04-18 07:00:00 7.4 3 Nordeste 6 Nordeste 0 -- -- 100
2019-04-18 06:00:00 8.2 0 Calma 10 Sudoeste 0 -- -- 100
2019-04-18 05:00:00 8.3 3 Sudoeste 4 Sudoeste 0 -- -- 100
2019-04-18 04:00:00 8.6 2 Este 8 Este 0 -- -- 100
2019-04-18 03:00:00 8.6 5 Este 7 Este 0 -- -- 100
2019-04-18 02:00:00 8.7 3 Este 7 Este 0 -- -- 100
2019-04-18 01:00:00 8.9 4 Sudeste 8 Este 0 -- -- 100
2019-04-18 00:00:00 9.1 4 Este 8 Este 0 -- -- 100
2019-04-17 23:00:00 9.2 4 Sur 8 Este 0 -- -- 100
2019-04-17 22:00:00 9.8 5 Sudeste 10 Sudeste 0 -- -- 97
2019-04-17 21:00:00 10.4 4 Nordeste 12 Este 0 -- -- 93
2019-04-17 20:00:00 11.9 2 Este 10 Sudeste 0 -- -- 84
2019-04-17 19:00:00 12.7 7 Este 18 Este 0 -- -- 81
2019-04-17 18:00:00 14 10 Este 19 Este 0 -- -- 76
2019-04-17 17:00:00 14.7 6 Nordeste 19 Este 0 -- -- 73
2019-04-17 16:00:00 16.9 6 Nordeste 23 Sudoeste 0 -- -- 65
2019-04-17 15:00:00 17.1 11 Oeste 25 Oeste 0 -- -- 55
2019-04-17 14:00:00 16.3 5 Sudeste 23 Sur 0 -- -- 67
2019-04-17 13:00:00 15.8 9 Sur 26 Oeste 0 -- -- 67
2019-04-17 12:00:00 14.8 12 Sudoeste 31 Oeste 0 -- -- 58
2019-04-17 11:00:00 12.7 10 Sudoeste 23 Sudoeste 0 -- -- 66
2019-04-17 10:00:00 9.6 9 Sudoeste 20 Sudoeste 0 -- -- 87
2019-04-17 09:00:00 6.6 10 Sudoeste 21 Sur 0 -- -- 100
2019-04-17 08:00:00 6.2 8 Sudoeste 21 Sudoeste 0 -- -- 100
2019-04-17 07:00:00 6.4 9 Sudoeste 26 Sudoeste 0 -- -- 100
2019-04-17 06:00:00 6.5 13 Sudoeste 26 Oeste 0 -- -- 100
2019-04-17 05:00:00 7.1 6 Sudoeste 21 Oeste 0 -- -- 100
2019-04-17 04:00:00 7 10 Sudoeste 20 Sudoeste 0 -- -- 100
2019-04-17 03:00:00 6.2 0 Calma 4 Sur 0 -- -- 100
2019-04-17 02:00:00 7.3 2 Sudeste 9 Este 0 -- -- 100
2019-04-17 01:00:00 8.3 3 Sudeste 6 Sudeste 0.2 -- -- 100
2019-04-17 00:00:00 8.5 0 Calma 7 Sudeste 0.2 -- -- 100
2019-04-16 23:00:00 8.8 4 Sudeste 8 Este 0 -- -- 100
2019-04-16 22:00:00 9 3 Este 6 Sudeste 0 -- -- 100
2019-04-16 21:00:00 9.2 4 Sudeste 9 Este 0 -- -- 98
2019-04-16 20:00:00 9.7 5 Este 13 Este 0 -- -- 94
2019-04-16 19:00:00 10.3 9 Sudeste 14 Este 0 -- -- 88
2019-04-16 18:00:00 11 8 Este 17 Sudeste 0 -- -- 78
2019-04-16 17:00:00 11.7 6 Este 15 Este 0 -- -- 74
2019-04-16 16:00:00 12.1 6 Sudeste 13 Este 0 -- -- 72
2019-04-16 15:00:00 11.1 4 Este 10 Nordeste 0 -- -- 76
2019-04-16 14:00:00 9.7 5 Este 12 Sur 0 -- -- 83
2019-04-16 13:00:00 10.2 5 Nordeste 9 Nordeste 0 -- -- 82
2019-04-16 12:00:00 9.6 3 Nordeste 7 Este 0 -- -- 83
2019-04-16 11:00:00 9.4 4 Este 8 Nordeste 0 -- -- 84
2019-04-16 10:00:00 8.6 2 Sur 6 Nordeste 0 -- -- 89
2019-04-16 09:00:00 6.9 0 Calma 4 Oeste 0 -- -- 100
2019-04-16 08:00:00 5.7 2 Sudoeste 8 Sudoeste 0 -- -- 100
2019-04-16 07:00:00 5.6 4 Sudoeste 8 Sudoeste 0 -- -- 99
2019-04-16 06:00:00 5.6 2 Sur 5 Sudoeste 0 -- -- 99
2019-04-16 05:00:00 5.6 2 Sudoeste 13 Oeste 0 -- -- 99
2019-04-16 04:00:00 5.3 3 Sudoeste 19 Sudeste 0 -- -- 97
2019-04-16 03:00:00 6.2 2 Sudoeste 8 Sudoeste 1.6 -- -- 97
2019-04-16 02:00:00 6.8 2 Oeste 9 Sudoeste 1.2 -- -- 87
2019-04-16 01:00:00 8.1 4 Sur 22 Sudoeste 0 -- -- 72
2019-04-16 00:00:00 8 11 Sudoeste 22 Sudoeste 0 -- -- 73
2019-04-15 23:00:00 8 4 Sur 10 Sudoeste 0 -- -- 76
2019-04-15 22:00:00 8.2 0 Calma 7 Nordeste 0 -- -- 83
2019-04-15 21:00:00 8.6 2 Este 6 Este 0 -- -- 82
2019-04-15 20:00:00 9.2 4 Nordeste 12 Sudeste 0 -- -- 79
2019-04-15 19:00:00 10.2 5 Este 17 Este 0 -- -- 75
2019-04-15 18:00:00 11.8 7 Este 19 Este 0 -- -- 71
2019-04-15 17:00:00 12.6 9 Este 20 Este 0 -- -- 70
2019-04-15 16:00:00 13.3 13 Este 25 Este 0 -- -- 65
2019-04-15 15:00:00 14.2 10 Sudeste 25 Este 0 -- -- 60
2019-04-15 14:00:00 13.9 9 Sudeste 21 Este 0 -- -- 62
2019-04-15 13:00:00 13.1 8 Sudeste 14 Este 0 -- -- 60
2019-04-15 12:00:00 11.7 8 Este 15 Este 0 -- -- 63
2019-04-15 11:00:00 11 5 Sudeste 13 Sur 0 -- -- 67
2019-04-15 10:00:00 9.1 5 Este 11 Nordeste 0 -- -- 72
2019-04-15 09:00:00 4.5 0 Calma 5 Sudoeste 0 -- -- 100
2019-04-15 08:00:00 1.6 0 Calma 4 Sudoeste 0 -- -- 100
2019-04-15 07:00:00 1.4 2 Sudeste 7 Este 0 -- -- 100
2019-04-15 06:00:00 0.9 0 Calma 4 Sur 0 -- -- 98
2019-04-15 05:00:00 1.4 2 Sur 4 Sur 0 -- -- 96
2019-04-15 04:00:00 2 2 Sudoeste 4 Sudoeste 0 -- -- 95
2019-04-15 03:00:00 3 0 Calma 5 Sur 0 -- -- 93
2019-04-15 02:00:00 4.3 0 Calma 3 Noroeste 0 -- -- 87
2019-04-15 01:00:00 5.9 2 Sudeste 6 Este 0 -- -- 81
2019-04-15 00:00:00 7.3 4 Nordeste 7 Nordeste 0 -- -- 79
2019-04-14 23:00:00 8.1 4 Nordeste 9 Norte 0 -- -- 79
2019-04-14 22:00:00 7.1 3 Nordeste 5 Nordeste 0 -- -- 89
2019-04-14 21:00:00 9.2 2 Nordeste 6 Nordeste 0 -- -- 80
2019-04-14 20:00:00 11.3 4 Nordeste 14 Este 0 -- -- 74
2019-04-14 19:00:00 12.5 8 Este 17 Este 0 -- -- 69
2019-04-14 18:00:00 13.4 10 Este 16 Este 0 -- -- 63
2019-04-14 17:00:00 13.6 7 Sudeste 16 Este 0 -- -- 60
2019-04-14 16:00:00 14.7 6 Este 14 Este 0 -- -- 54
2019-04-14 15:00:00 13.5 8 Este 15 Este 0 -- -- 56
2019-04-14 14:00:00 12.8 7 Este 17 Este 0 -- -- 55
2019-04-14 13:00:00 12.4 7 Este 15 Sudeste 0 -- -- 52
2019-04-14 12:00:00 13 6 Sudeste 17 Este 0 -- -- 49
2019-04-14 11:00:00 12.5 4 Este 8 Sur 0 -- -- 50
2019-04-14 10:00:00 9.6 2 Este 8 Nordeste 0 -- -- 56
2019-04-14 09:00:00 6.2 7 Nordeste 13 Este 0 -- -- 59
2019-04-14 08:00:00 3.5 6 Este 14 Este 0 -- -- 62
2019-04-14 07:00:00 2.7 7 Este 12 Nordeste 0 -- -- 65
2019-04-14 06:00:00 3.1 5 Este 13 Norte 0 -- -- 67
2019-04-14 05:00:00 2.8 2 Nordeste 10 Norte 0 -- -- 74
2019-04-14 04:00:00 4.6 6 Nordeste 14 Nordeste 0 -- -- 64
2019-04-14 03:00:00 5 5 Nordeste 12 Nordeste 0 -- -- 64
2019-04-14 02:00:00 5.6 5 Nordeste 9 Nordeste 0 -- -- 62
2019-04-14 01:00:00 6.5 5 Este 10 Nordeste 0 -- -- 56
2019-04-14 00:00:00 7.2 5 Nordeste 14 Norte 0 -- -- 57
2019-04-13 23:00:00 7.7 4 Este 10 Nordeste 0 -- -- 55
2019-04-13 22:00:00 8.3 5 Nordeste 10 Nordeste 0 -- -- 54
2019-04-13 21:00:00 9.3 0 Calma 7 Este 0 -- -- 57
2019-04-13 20:00:00 13.7 4 Este 17 Este 0 -- -- 34
2019-04-13 19:00:00 14.8 7 Este 19 Este 0 -- -- 33
2019-04-13 18:00:00 15.5 10 Este 21 Sudeste 0 -- -- 35
2019-04-13 17:00:00 16.1 8 Sudeste 24 Nordeste 0 -- -- 37
2019-04-13 16:00:00 17.1 6 Sudeste 21 Sudeste 0 -- -- 32
2019-04-13 15:00:00 16.6 7 Sudeste 20 Este 0 -- -- 31
2019-04-13 14:00:00 15.8 9 Este 22 Este 0 -- -- 31
2019-04-13 13:00:00 15.1 6 Este 14 Este 0 -- -- 32
2019-04-13 12:00:00 14.1 6 Este 14 Sudoeste 0 -- -- 36
2019-04-13 11:00:00 12.1 5 Oeste 18 Oeste 0 -- -- 32
2019-04-13 10:00:00 6.6 6 Sudoeste 13 Sudoeste 0 -- -- 49
2019-04-13 09:00:00 1.4 3 Sudoeste 10 Sudoeste 0 -- -- 75
2019-04-13 08:00:00 -2.4 2 Oeste 8 Sudoeste 0 -- -- 94
2019-04-13 07:00:00 -2.6 3 Sudoeste 7 Sur 0 -- -- 93
2019-04-13 06:00:00 -1.9 2 Noroeste 7 Sudoeste 0 -- -- 93
2019-04-13 05:00:00 -1.2 2 Sudoeste 9 Sudoeste 0 -- -- 93
2019-04-13 04:00:00 -0.2 2 Oeste 11 Sur -- -- -- 91
2019-04-13 03:00:00 -0.4 2 Sudoeste 8 Sur 0 -- -- 88
2019-04-13 02:00:00 0.7 2 Sur 6 Sur 0 -- -- 77
2019-04-13 01:00:00 3.1 2 Noroeste 10 Nordeste 0 -- -- 68
2019-04-13 00:00:00 4.6 6 Nordeste 12 Norte 0 -- -- 51
2019-04-12 23:00:00 5.6 7 Este 14 Nordeste 0 -- -- 53
2019-04-12 22:00:00 6.7 4 Nordeste 10 Norte 0 -- -- 61
2019-04-12 21:00:00 8.6 0 Calma 18 Sudeste 0 -- -- 67
2019-04-12 20:00:00 12.6 7 Nordeste 17 Norte 0 -- -- 40
2019-04-12 19:00:00 15.5 6 Norte 20 Norte 0 -- -- 20
2019-04-12 18:00:00 16.6 7 Norte 23 Norte 0 -- -- 20
2019-04-12 17:00:00 17 10 Norte 22 Norte 0 -- -- 18
2019-04-12 16:00:00 17.7 10 Norte 24 Norte 0 -- -- 17
2019-04-12 15:00:00 17.2 8 Norte 27 Nordeste 0 -- -- 17
2019-04-12 14:00:00 16.4 13 Nordeste 24 Este 0 -- -- 19
2019-04-12 13:00:00 15.2 9 Este 21 Nordeste 0 -- -- 36
2019-04-12 12:00:00 14.2 6 Este 17 Oeste 0 -- -- 34
2019-04-12 11:00:00 10.5 5 Sudoeste 16 Sudoeste 0 -- -- 46
2019-04-12 10:00:00 8.1 7 Sudoeste 15 Sudoeste 0 -- -- 61
2019-04-12 09:00:00 6.1 5 Sudoeste 15 Sudoeste 0 -- -- 75
2019-04-12 08:00:00 2.6 5 Sur 15 Sudoeste 0 -- -- 90
2019-04-12 07:00:00 3 3 Sudoeste 10 Sudoeste 0 -- -- 89
2019-04-12 06:00:00 4 4 Sudoeste 14 Sudoeste 0 -- -- 89
2019-04-12 05:00:00 4.1 4 Sudoeste 10 Sur 0 -- -- 93
2019-04-12 04:00:00 4.6 5 Sudoeste 12 Sudoeste 0 -- -- 92
2019-04-12 03:00:00 5.1 4 Sudoeste 9 Oeste 0 -- -- 91
2019-04-12 02:00:00 6.2 2 Sudoeste 9 Sur 0 -- -- 89
2019-04-12 01:00:00 6.7 2 Norte 6 Sudoeste 0 -- -- 83
2019-04-12 00:00:00 7.7 5 Nordeste 12 Este 0 -- -- 71
2019-04-11 23:00:00 7.5 0 Calma 5 Sur 0 -- -- 74
2019-04-11 22:00:00 8.5 4 Norte 14 Norte 0 -- -- 63
2019-04-11 21:00:00 9.3 6 Norte 25 Norte 0 -- -- 60
2019-04-11 20:00:00 10.4 8 Nordeste 27 Nordeste 0 -- -- 53
2019-04-11 19:00:00 11.2 5 Este 15 Nordeste 0 -- -- 48
2019-04-11 18:00:00 11.3 4 Este 33 Nordeste 0 -- -- 48
2019-04-11 17:00:00 11.9 6 Nordeste 18 Norte 0 -- -- 45
2019-04-11 16:00:00 12.2 6 Nordeste 19 Norte 0 -- -- 47
2019-04-11 15:00:00 11.6 9 Norte 25 Norte 0 -- -- 50
2019-04-11 14:00:00 12.5 4 Sudoeste 16 Oeste 0 -- -- 45
2019-04-11 13:00:00 11.1 2 Norte 14 Sudoeste 0 -- -- 45
2019-04-11 12:00:00 10.7 4 Sudoeste 21 Oeste 0 -- -- 45
2019-04-11 11:00:00 11.7 5 Noroeste 13 Sudeste 0 -- -- 36
2019-04-11 10:00:00 10.6 6 Norte 20 Norte 0 -- -- 42
2019-04-11 09:00:00 5 2 Oeste 10 Sudoeste 0 -- -- 82
2019-04-11 08:00:00 2.3 0 Calma 13 Sudoeste 0 -- -- 93
2019-04-11 07:00:00 2.5 5 Sudoeste 12 Sudoeste 0 -- -- 93
2019-04-11 06:00:00 2.6 4 Sur 12 Sur 0 -- -- 92
2019-04-11 05:00:00 3.2 5 Sudoeste 11 Sudoeste 0 -- -- 90
2019-04-11 04:00:00 4.4 4 Sudoeste 15 Oeste 0 -- -- 85
2019-04-11 03:00:00 5.3 4 Sudoeste 12 Oeste 0 -- -- 85
2019-04-11 02:00:00 5.9 4 Sudoeste 20 Oeste 0 -- -- 83
2019-04-11 01:00:00 5.5 6 Sudoeste 13 Oeste 0 -- -- 85
2019-04-11 00:00:00 5.5 2 Sudoeste 10 Oeste 0 -- -- 80
2019-04-10 23:00:00 6.1 4 Sudoeste 12 Sudoeste 0 -- -- 75
2019-04-10 22:00:00 6.7 6 Sudoeste 16 Oeste 0 -- -- 66
2019-04-10 21:00:00 8.7 6 Noroeste 20 Norte 0 -- -- 58
2019-04-10 20:00:00 9.6 8 Norte 29 Norte 0 -- -- 57
2019-04-10 19:00:00 12.7 9 Norte 21 Norte 0 -- -- 38
2019-04-10 18:00:00 13 6 Norte 26 Norte 0 -- -- 39
2019-04-10 17:00:00 12.7 8 Noroeste 24 Oeste 0 -- -- 38
2019-04-10 16:00:00 12.3 6 Este 22 Oeste 0 -- -- 48
2019-04-10 15:00:00 11.7 4 Este 29 Norte 0 -- -- 49
2019-04-10 14:00:00 12.9 8 Norte 22 Norte 0 -- -- 47
2019-04-10 13:00:00 12 7 Nordeste 28 Norte 0 -- -- 48
2019-04-10 12:00:00 12 7 Norte 21 Norte 0 -- -- 46
2019-04-10 11:00:00 8.4 6 Sur 12 Sur 0 -- -- 79
2019-04-10 10:00:00 4.2 5 Sudoeste 11 Oeste 0 -- -- 100
2019-04-10 09:00:00 0.5 3 Sudoeste 12 Sudoeste 0 -- -- 100
2019-04-10 08:00:00 -0.3 4 Sudoeste 11 Sudoeste 0 -- -- 100
2019-04-10 07:00:00 -0.3 5 Sudoeste 10 Oeste 0 -- -- 100
2019-04-10 06:00:00 -0.1 6 Sudoeste 13 Sudoeste 0 -- -- 100
2019-04-10 05:00:00 0 5 Sudoeste 12 Sudoeste 0 -- -- 100
2019-04-10 04:00:00 0.7 4 Sudoeste 6 Sudoeste 0 -- -- 100
2019-04-10 03:00:00 1.1 3 Oeste 12 Oeste 0 -- -- 100
2019-04-10 02:00:00 1.7 6 Oeste 12 Sudoeste 0 -- -- 100
2019-04-10 01:00:00 1.6 0 Calma 5 Sur 0 -- -- 100
2019-04-10 00:00:00 1.8 2 Sudoeste 6 Sur 0 -- -- 100
2019-04-09 23:00:00 2.8 2 Sudoeste 8 Sudoeste 0 -- -- 100
2019-04-09 22:00:00 3.7 3 Sudoeste 14 Sudoeste 0 -- -- 98
2019-04-09 21:00:00 5 6 Sudoeste 18 Sudoeste 0 -- -- 96
2019-04-09 20:00:00 5.7 9 Sudoeste 20 Oeste 0 -- -- 96
2019-04-09 19:00:00 5.9 10 Sudoeste 19 Oeste 0.2 -- -- 97
2019-04-09 18:00:00 5.8 6 Sudoeste 24 Oeste 0.8 -- -- 100
2019-04-09 17:00:00 5.9 8 Sudoeste 15 Sudoeste 0 -- -- 100
2019-04-09 16:00:00 5.7 3 Sudoeste 9 Sudoeste 0.6 -- -- 99
2019-04-09 15:00:00 5.6 4 Sudoeste 8 Oeste 1.6 -- -- 97
2019-04-09 14:00:00 6.2 3 Sudeste 18 Este 3.8 -- -- 89
2019-04-09 13:00:00 9.1 8 Este 21 Este 0 -- -- 81
2019-04-09 12:00:00 9.4 9 Este 20 Este 0 -- -- 74
2019-04-09 11:00:00 8.6 2 Sudeste 4 Sudeste 0 -- -- 76
2019-04-09 10:00:00 6 3 Sudeste 10 Nordeste 0 -- -- 92
2019-04-09 09:00:00 4.3 2 Sudeste 6 Sudoeste 0 -- -- 100
2019-04-09 08:00:00 3 4 Sur 12 Oeste 0 -- -- 97
2019-04-09 07:00:00 4.6 4 Este 30 Oeste 5 -- -- 93
2019-04-09 06:00:00 6.2 9 Sudoeste 31 Sudoeste 2.8 -- -- 93
2019-04-09 05:00:00 6.4 2 Este 7 Noroeste 0 -- -- 94
2019-04-09 04:00:00 6.5 2 Nordeste 9 Nordeste 0 -- -- 95
2019-04-09 03:00:00 6.5 3 Nordeste 6 Sudeste 0 -- -- 94
2019-04-09 02:00:00 6.7 2 Sudeste 9 Norte 0.2 -- -- 92
2019-04-09 01:00:00 7.3 5 Norte 11 Nordeste 0 -- -- 92
2019-04-09 00:00:00 7.6 4 Norte 9 Este 0.2 -- -- 97
2019-04-08 23:00:00 8 3 Este 9 Este 0 -- -- 97
2019-04-08 22:00:00 8.1 4 Norte 12 Nordeste 0 -- -- 97
2019-04-08 21:00:00 8.4 5 Nordeste 13 Nordeste 0.4 -- -- 94
2019-04-08 20:00:00 10 5 Nordeste 15 Este 0.4 -- -- 84
2019-04-08 19:00:00 11.4 7 Este 15 Este 0 -- -- 68
2019-04-08 18:00:00 12 8 Sudeste 18 Este 0 -- -- 62
2019-04-08 17:00:00 12.4 4 Este 13 Este 0 -- -- 55
2019-04-08 16:00:00 12.2 5 Este 16 Este 0 -- -- 55
2019-04-08 15:00:00 13 6 Este 21 Sudeste 0 -- -- 51
2019-04-08 14:00:00 13.5 8 Sudeste 18 Este 0 -- -- 46
2019-04-08 13:00:00 13.3 7 Este 18 Este 0 -- -- 49
2019-04-08 12:00:00 12.1 5 Oeste 16 Sudoeste 0 -- -- 51
2019-04-08 11:00:00 8.7 8 Sudoeste 18 Sudoeste 0 -- -- 72
2019-04-08 10:00:00 5.3 7 Sudoeste 23 Sudoeste 0 -- -- 100
2019-04-08 09:00:00 2.1 5 Sudoeste 15 Sudoeste 0 -- -- 100
2019-04-08 08:00:00 0.3 5 Sudoeste 9 Sudoeste 0 -- -- 100
2019-04-08 07:00:00 -0.3 3 Sudoeste 11 Sudoeste 0 -- -- 100
2019-04-08 06:00:00 0.1 0 Calma 5 Sudoeste 0 -- -- 100
2019-04-08 05:00:00 0.5 0 Calma 12 Sudoeste 0 -- -- 100
2019-04-08 04:00:00 0.6 5 Sudoeste 14 Sudoeste 0 -- -- 100
2019-04-08 03:00:00 1 5 Sudoeste 13 Sudoeste 0 -- -- 100
2019-04-08 02:00:00 1.3 5 Sudoeste 11 Oeste 0 -- -- 100
2019-04-08 01:00:00 1.4 5 Sudoeste 12 Sudoeste 0 -- -- 100
2019-04-08 00:00:00 2.5 5 Sudoeste 14 Sudoeste 0 -- -- 100
2019-04-07 23:00:00 2.9 5 Sudoeste 13 Sudoeste 0 -- -- 99
2019-04-07 22:00:00 3.6 7 Sudoeste 16 Sudoeste 0 -- -- 100
2019-04-07 21:00:00 3.8 6 Sudoeste 14 Sudoeste 0 -- -- 97
2019-04-07 20:00:00 5.5 3 Sur 8 Sudoeste 0.4 -- -- 93
2019-04-07 19:00:00 6.7 3 Sudeste 17 Este 1 -- -- 88
2019-04-07 18:00:00 7.9 7 Este 25 Oeste 0.2 -- -- 76
2019-04-07 17:00:00 9.5 9 Sudoeste 27 Oeste 0 -- -- 59
2019-04-07 16:00:00 9.7 10 Oeste 22 Oeste 0 -- -- 55
2019-04-07 15:00:00 9.3 11 Oeste 22 Sudoeste 0 -- -- 59
2019-04-07 14:00:00 10.7 6 Sur 22 Norte 0 -- -- 55
2019-04-07 13:00:00 10.8 9 Nordeste 28 Nordeste 0 -- -- 40
2019-04-07 12:00:00 10.2 8 Este 18 Sudeste 0 -- -- 56
2019-04-07 11:00:00 8.7 8 Este 17 Nordeste 0 -- -- 59
2019-04-07 10:00:00 4.7 2 Este 4 Nordeste 0 -- -- 78
2019-04-07 09:00:00 -0.9 0 Calma 4 Sur 0 -- -- 100
2019-04-07 08:00:00 -1.8 2 Sudoeste 4 Sur 0 -- -- 100
2019-04-07 07:00:00 -1.5 2 Sudoeste 8 Sur 0 -- -- 100
2019-04-07 06:00:00 -1.1 2 Este 4 Nordeste 0 -- -- 100
2019-04-07 05:00:00 -0.4 0 Calma 10 Sudoeste 0 -- -- 98
2019-04-07 04:00:00 0.1 4 Sudoeste 10 Oeste 0 -- -- 97
2019-04-07 03:00:00 1.4 2 Sudoeste 9 Oeste 0 -- -- 91
2019-04-07 02:00:00 3.1 5 Sudoeste 21 Sudoeste 0 -- -- 91
2019-04-07 01:00:00 -- -- -- -- -- -- -- -- --
2019-04-07 00:00:00 4.8 6 Oeste 16 Sudoeste 0 -- -- 82
2019-04-06 23:00:00 5.2 5 Sudoeste 12 Sudoeste 0 -- -- 81
2019-04-06 22:00:00 4.6 2 Sudoeste 5 Sudoeste 0 -- -- 85
2019-04-06 21:00:00 5.2 2 Norte 13 Sudoeste 0 -- -- 80
2019-04-06 20:00:00 7.7 4 Sudoeste 19 Oeste 0 -- -- 63
2019-04-06 19:00:00 9.6 9 Oeste 27 Oeste 0 -- -- 55
2019-04-06 18:00:00 8.1 11 Sudoeste 26 Sudoeste 0 -- -- 63
2019-04-06 17:00:00 8.6 11 Sudoeste 30 Oeste 0 -- -- 61
2019-04-06 16:00:00 10.2 13 Sudoeste 30 Oeste 0 -- -- 61
2019-04-06 15:00:00 8 9 Sudoeste 23 Sur 0 -- -- 70
2019-04-06 14:00:00 7.9 10 Oeste 35 Oeste 0 -- -- 71
2019-04-06 13:00:00 7.6 15 Sudoeste 34 Oeste 0 -- -- 73
2019-04-06 12:00:00 4.9 10 Sudoeste 24 Sudoeste 0 -- -- 87
2019-04-06 11:00:00 4.5 11 Sudoeste 26 Oeste 0 -- -- 89
2019-04-06 10:00:00 3.7 6 Sudoeste 24 Oeste 0 -- -- 94
2019-04-06 09:00:00 3.5 10 Sudoeste 23 Oeste 0 -- -- 96
2019-04-06 08:00:00 3.4 8 Sudoeste 29 Sudoeste 0 -- -- 97
2019-04-06 07:00:00 3.5 13 Sudoeste 30 Oeste 0 -- -- 98
2019-04-06 06:00:00 3.3 10 Oeste 21 Sudoeste 0 -- -- 98
2019-04-06 05:00:00 3 6 Sur 28 Sudoeste 0 -- -- 100
2019-04-06 04:00:00 3 9 Sudoeste 20 Sudoeste 0 -- -- 100
2019-04-06 03:00:00 3.2 6 Sudoeste 21 Oeste 0.4 -- -- 99
2019-04-06 02:00:00 4.2 7 Sudoeste 23 Sudoeste 1.8 -- -- 98
2019-04-06 01:00:00 4.7 4 Norte 11 Nordeste 0 -- -- 98
2019-04-06 00:00:00 4.8 3 Sur 6 Sudeste 1 -- -- 100
2019-04-05 23:00:00 4.9 2 Sudoeste 11 Sudoeste 1.8 -- -- 97
2019-04-05 22:00:00 5.9 4 Sudoeste 10 Sur 1.4 -- -- 98
2019-04-05 21:00:00 6.1 3 Sur 12 Sudoeste 0 -- -- 97
2019-04-05 20:00:00 6.3 6 Sudoeste 15 Sudoeste 0.8 -- -- 93
2019-04-05 19:00:00 7.5 4 Sudoeste 20 Oeste 0.6 -- -- 88
2019-04-05 18:00:00 9.4 8 Sudoeste 21 Sur 0 -- -- 66
2019-04-05 17:00:00 10.2 11 Sudoeste 30 Sudoeste 0 -- -- 64
2019-04-05 16:00:00 9.4 12 Sudoeste 25 Oeste 0 -- -- 70
2019-04-05 15:00:00 8.9 9 Sudoeste 26 Sudoeste 0 -- -- 75
2019-04-05 14:00:00 7.4 11 Sudoeste 27 Sudoeste 0.2 -- -- 82
2019-04-05 13:00:00 6.7 8 Sudoeste 27 Oeste 0 -- -- 83
2019-04-05 12:00:00 8.2 14 Sudoeste 31 Sudoeste 0 -- -- 69
2019-04-05 11:00:00 8.2 14 Sudoeste 25 Oeste 0 -- -- 66
2019-04-05 10:00:00 5 8 Sudoeste 21 Oeste 0 -- -- 74
2019-04-05 09:00:00 1.5 8 Sudoeste 20 Oeste 0 -- -- 83
2019-04-05 08:00:00 -0.8 6 Sudoeste 24 Oeste 0 -- -- 92
2019-04-05 07:00:00 -0.5 13 Sudoeste 28 Oeste 0 -- -- 92
2019-04-05 06:00:00 -0.4 18 Oeste 28 Sudoeste 0 -- -- 94
2019-04-05 05:00:00 -0.1 13 Sudoeste 24 Oeste 0 -- -- 99
2019-04-05 04:00:00 -0.5 3 Sudoeste 7 Sur 0 -- -- 100
2019-04-05 03:00:00 -0.9 2 Sur 10 Sudoeste 0 -- -- 100
2019-04-05 02:00:00 -0.9 4 Sudoeste 10 Sudoeste 0 -- -- 100
2019-04-05 01:00:00 -0.7 3 Sudoeste 7 Sur 0 -- -- 99
2019-04-05 00:00:00 0.4 2 Sur 6 Sur 0 -- -- 97
2019-04-04 23:00:00 1.7 3 Sudoeste 8 Sudoeste 0 -- -- 95
2019-04-04 22:00:00 3.9 0 Calma 8 Este 0 -- -- 92
2019-04-04 21:00:00 4.6 2 Nordeste 9 Norte 0 -- -- 91
2019-04-04 20:00:00 5.2 5 Nordeste 14 Sudeste 0 -- -- 85
2019-04-04 19:00:00 6.1 7 Este 14 Este 0 -- -- 73
2019-04-04 18:00:00 7 5 Nordeste 19 Sudeste 0 -- -- 65
2019-04-04 17:00:00 7.2 6 Este 17 Sur 0 -- -- 63
2019-04-04 16:00:00 8.4 6 Sur 18 Este 0 -- -- 53
2019-04-04 15:00:00 8.2 6 Sur 19 Sudeste 0 -- -- 58
2019-04-04 14:00:00 7.7 6 Sudeste 17 Nordeste 0 -- -- 57
2019-04-04 13:00:00 7.4 9 Nordeste 17 Nordeste 0 -- -- 62
2019-04-04 12:00:00 5.5 4 Nordeste 9 Norte 0 -- -- 72
2019-04-04 11:00:00 3.3 3 Sudeste 6 Sudeste 0 -- -- 83
2019-04-04 10:00:00 2.2 3 Sudeste 10 Sudoeste 0 -- -- 87
2019-04-04 09:00:00 0.4 3 Sur 10 Sudoeste 0 -- -- 96
2019-04-04 08:00:00 -0.8 5 Sudoeste 11 Sudoeste 0 -- -- 98
2019-04-04 07:00:00 -0.6 4 Sudoeste 12 Oeste 0 -- -- 96
2019-04-04 06:00:00 0.1 5 Oeste 26 Oeste 0 -- -- 96
2019-04-04 05:00:00 0.7 11 Sudoeste 24 Sudoeste 0 -- -- 100
2019-04-04 04:00:00 1.4 0 Calma 9 Este 0 -- -- 100
2019-04-04 03:00:00 1.4 3 Este 8 Nordeste 0 -- -- 100
2019-04-04 02:00:00 1.4 0 Calma 9 Sudeste 0.2 -- -- 100
2019-04-04 01:00:00 1.5 3 Nordeste 10 Nordeste 0 -- -- 100
2019-04-04 00:00:00 1.6 2 Norte 14 Nordeste 0 -- -- 100
2019-04-03 23:00:00 1.3 2 Nordeste 8 Nordeste 1.6 -- -- 100
2019-04-03 22:00:00 2.6 5 Este 10 Norte 2.4 -- -- 99
2019-04-03 21:00:00 3.3 3 Nordeste 9 Este 2.4 -- -- 100
2019-04-03 20:00:00 4.2 6 Nordeste 14 Este 2.2 -- -- 100
2019-04-03 19:00:00 4.8 5 Sudeste 19 Sudeste 1 -- -- 100
2019-04-03 18:00:00 5.8 9 Sudeste 22 Este 0.6 -- -- 97
2019-04-03 17:00:00 8.4 8 Nordeste 23 Sur 0 -- -- 85
2019-04-03 16:00:00 9.9 12 Sudoeste 28 Oeste 0 -- -- 74
2019-04-03 15:00:00 10.1 10 Sudoeste 31 Sudoeste 0 -- -- 74
2019-04-03 14:00:00 10.8 13 Sudoeste 33 Oeste 0 -- -- 74
2019-04-03 13:00:00 10.1 17 Sudoeste 43 Oeste 0 -- -- 79
2019-04-03 12:00:00 8.8 10 Sudoeste 28 Sudoeste 0 -- -- 88
2019-04-03 11:00:00 7.7 10 Sudoeste 30 Sudoeste 0 -- -- 100
2019-04-03 10:00:00 7.2 12 Sudoeste 30 Sudoeste 1 -- -- 100
2019-04-03 09:00:00 6.5 7 Sudoeste 13 Sudoeste 0 -- -- 100
2019-04-03 08:00:00 6.3 4 Sudoeste 11 Sudoeste 2.6 -- -- 100
2019-04-03 07:00:00 6.2 3 Sudoeste 10 Oeste 0 -- -- 100
2019-04-03 06:00:00 6.1 5 Sudoeste 10 Oeste 0 -- -- 100
2019-04-03 05:00:00 6 3 Oeste 6 Oeste 0.2 -- -- 100
2019-04-03 04:00:00 5.8 2 Sudoeste 5 Sur 0 -- -- 100
2019-04-03 03:00:00 5.7 2 Sur 4 Sur 0 -- -- 100
2019-04-03 02:00:00 5.7 0 Calma 5 Noroeste 0 -- -- 100
2019-04-03 01:00:00 6 2 Sudoeste 8 Sudoeste 0.2 -- -- 100
2019-04-03 00:00:00 6.3 3 Nordeste 6 Nordeste 0 -- -- 100
2019-04-02 23:00:00 6.3 0 Calma 9 Norte 0.2 -- -- 100
2019-04-02 22:00:00 6.6 2 Sudoeste 6 Nordeste 0.6 -- -- 99
2019-04-02 21:00:00 6.9 4 Norte 10 Nordeste 0 -- -- 98
2019-04-02 20:00:00 7 5 Nordeste 14 Este 0 -- -- 97
2019-04-02 19:00:00 7.7 5 Nordeste 11 Norte 0 -- -- 96
2019-04-02 18:00:00 6 5 Sudeste 9 Sur 3.2 -- -- 99
2019-04-02 17:00:00 5.7 6 Nordeste 27 Norte 4.8 -- -- 92
2019-04-02 16:00:00 10.5 10 Nordeste 26 Norte 0 -- -- 71
2019-04-02 15:00:00 11.7 8 Este 21 Este 0 -- -- 70
2019-04-02 14:00:00 13.1 8 Este 20 Nordeste 0 -- -- 62
2019-04-02 13:00:00 12.4 6 Este 18 Este 0 -- -- 62
2019-04-02 12:00:00 12.9 7 Este 17 Este 0 -- -- 58
2019-04-02 11:00:00 11.5 7 Este 14 Este 0 -- -- 66
2019-04-02 10:00:00 7.8 0 Calma 7 Sudoeste 0 -- -- 84
2019-04-02 09:00:00 3.9 3 Sudoeste 6 Sudoeste 0 -- -- 100
2019-04-02 08:00:00 1.5 0 Calma 2 Sudeste 0 -- -- 98
2019-04-02 07:00:00 2.2 0 Calma 2 Sur 0 -- -- 97
2019-04-02 06:00:00 3 0 Calma 5 Sudoeste 0 -- -- 95
2019-04-02 05:00:00 3.8 0 Calma 4 Sur 0 -- -- 94
2019-04-02 04:00:00 4.2 0 Calma 11 Sudoeste 0 -- -- 93
2019-04-02 03:00:00 4.9 7 Sur 17 Oeste 0 -- -- 92
2019-04-02 02:00:00 5.6 6 Sudoeste 15 Sudoeste 0 -- -- 87
2019-04-02 01:00:00 7.1 9 Sudoeste 19 Oeste 0 -- -- 83
2019-04-02 00:00:00 7.8 9 Sudoeste 18 Oeste 0 -- -- 88
2019-04-01 23:00:00 7.6 0 Calma 6 Este 0 -- -- 82
2019-04-01 22:00:00 9 3 Nordeste 7 Nordeste 0 -- -- 76
2019-04-01 21:00:00 9.9 3 Este 11 Este 0 -- -- 71
2019-04-01 20:00:00 11.1 7 Este 13 Este 0 -- -- 65
2019-04-01 19:00:00 12.5 4 Nordeste 15 Sudeste 0 -- -- 56
2019-04-01 18:00:00 13.6 8 Este 19 Este 0 -- -- 53
2019-04-01 17:00:00 15.3 7 Este 21 Sudeste 0 -- -- 48
2019-04-01 16:00:00 16.2 5 Este 19 Este 0 -- -- 46
2019-04-01 15:00:00 15.7 11 Sudeste 23 Este 0 -- -- 44
2019-04-01 14:00:00 15.4 7 Sudeste 17 Este 0 -- -- 47
2019-04-01 13:00:00 15.1 8 Este 18 Este 0 -- -- 48
2019-04-01 12:00:00 13.5 6 Este 14 Sudeste 0 -- -- 52
2019-04-01 11:00:00 12.8 6 Este 10 Este 0 -- -- 59
2019-04-01 10:00:00 6.9 0 Calma 3 Este 0 -- -- 100
2019-04-01 09:00:00 4 0 Calma 3 Sur 0 -- -- 100
2019-04-01 08:00:00 3.1 0 Calma 4 Sudoeste 0 -- -- 100
2019-04-01 07:00:00 3 0 Calma 3 Sur 0 -- -- 100
2019-04-01 06:00:00 2.9 2 Sudoeste 3 Sudoeste 0 -- -- 100
2019-04-01 05:00:00 2.8 0 Calma 2 Sur 0 -- -- 100
2019-04-01 04:00:00 1.9 0 Calma 2 Sudoeste 0 -- -- 100
2019-04-01 03:00:00 2 0 Calma 2 Sur 0 -- -- 98
2019-04-01 02:00:00 3.1 0 Calma 4 Sudeste 0 -- -- 98
2019-04-01 01:00:00 3.8 2 Sudeste 6 Sudeste 0 -- -- 98
2019-04-01 00:00:00 4.4 2 Sur 4 Sur 0 -- -- 96
2019-03-31 23:00:00 5.3 0 Calma 2 Este 0 -- -- 93
2019-03-31 22:00:00 6.7 0 Calma 10 Nordeste 0 -- -- 90
2019-03-31 21:00:00 8.5 3 Nordeste 10 Sudeste 0 -- -- 87
2019-03-31 20:00:00 9.2 5 Este 15 Este 0 -- -- 85
2019-03-31 19:00:00 10.1 10 Este 17 Sudeste 0 -- -- 80
2019-03-31 18:00:00 11.9 8 Este 15 Este 0 -- -- 71
2019-03-31 17:00:00 10.7 7 Este 15 Este 0 -- -- 75
2019-03-31 16:00:00 10.6 7 Este 17 Sudeste 0 -- -- 74
2019-03-31 15:00:00 10.4 7 Sudeste 19 Nordeste 0 -- -- 75
2019-03-31 14:00:00 11.1 8 Este 16 Este 0 -- -- 66
2019-03-31 13:00:00 11.4 9 Sudeste 17 Sudeste 0 -- -- 68
2019-03-31 12:00:00 10.4 7 Sudeste 14 Este 0 -- -- 71
2019-03-31 11:00:00 8.9 7 Sudeste 12 Este 0 -- -- 72
2019-03-31 10:00:00 7.1 3 Nordeste 10 Nordeste 0 -- -- 67
2019-03-31 09:00:00 2.3 4 Nordeste 14 Este 0 -- -- 72
2019-03-31 08:00:00 0.4 7 Nordeste 13 Nordeste 0 -- -- 79
2019-03-31 07:00:00 0.3 6 Este 13 Nordeste 0 -- -- 81
2019-03-31 06:00:00 0.9 6 Este 11 Nordeste 0 -- -- 80
2019-03-31 05:00:00 0.5 5 Este 9 Nordeste 0 -- -- 90
2019-03-31 03:00:00 1.2 0 Calma 7 Nordeste 0 -- -- 89
2019-03-31 01:00:00 3.1 4 Nordeste 12 Sudoeste 0 -- -- 92
2019-03-31 00:00:00 4.5 5 Sudoeste 15 Sudoeste 0 -- -- 92
2019-03-30 23:00:00 4.7 3 Sudoeste 9 Sudoeste 0 -- -- 91
2019-03-30 22:00:00 6.2 0 Calma 6 Sudeste 0 -- -- 89
2019-03-30 21:00:00 6.6 3 Sudeste 12 Este 0 -- -- 87
2019-03-30 20:00:00 7.1 7 Nordeste 16 Nordeste 0 -- -- 82
2019-03-30 19:00:00 8.7 10 Nordeste 18 Nordeste 0 -- -- 73
2019-03-30 18:00:00 11.6 6 Nordeste 18 Este 0 -- -- 58
2019-03-30 17:00:00 12.8 7 Este 26 Este 0 -- -- 55
2019-03-30 16:00:00 13.1 9 Este 23 Sudeste 0 -- -- 53
2019-03-30 15:00:00 13.6 9 Este 24 Este 0 -- -- 51
2019-03-30 14:00:00 13.4 10 Nordeste 24 Este 0 -- -- 52
2019-03-30 13:00:00 12.1 8 Sudeste 20 Sudeste 0 -- -- 52
2019-03-30 12:00:00 11.3 9 Este 19 Este 0 -- -- 50
2019-03-30 11:00:00 10.6 4 Sudoeste 19 Oeste 0 -- -- 53
2019-03-30 10:00:00 7.4 10 Sudoeste 19 Sudoeste 0 -- -- 65
2019-03-30 09:00:00 2.9 6 Sudoeste 10 Sudoeste 0 -- -- 81
2019-03-30 08:00:00 -2.1 3 Sudoeste 6 Sudoeste 0 -- -- 98
2019-03-30 07:00:00 -4.1 0 Calma 5 Oeste 0 -- -- 95
2019-03-30 06:00:00 -4.3 0 Calma 3 Sudoeste 0 -- -- 93
2019-03-30 05:00:00 -2.9 0 Calma 5 Sudoeste 0 -- -- 90
2019-03-30 04:00:00 -0.9 2 Nordeste 10 Nordeste 0 -- -- 84
2019-03-30 03:00:00 -1.7 4 Nordeste 7 Nordeste 0 -- -- 92
2019-03-30 02:00:00 -1.7 0 Calma 5 Este 0 -- -- 94
2019-03-30 01:00:00 -1.4 0 Calma 9 Oeste 0 -- -- 90
2019-03-30 00:00:00 0.1 3 Sudoeste 5 Sudoeste 0 -- -- 86
2019-03-29 23:00:00 1.8 2 Este 6 Este 0 -- -- 78
2019-03-29 22:00:00 3.1 3 Sudeste 9 Este 0 -- -- 74
2019-03-29 21:00:00 3.8 5 Nordeste 10 Este 0 -- -- 72
2019-03-29 20:00:00 6.5 5 Nordeste 11 Nordeste 0 -- -- 63
2019-03-29 19:00:00 8.3 6 Nordeste 18 Este 0 -- -- 58
2019-03-29 18:00:00 9.5 6 Nordeste 18 Nordeste 0 -- -- 56
2019-03-29 17:00:00 10.7 6 Este 21 Sudeste 0 -- -- 51
2019-03-29 16:00:00 12.4 4 Sudeste 19 Este 0 -- -- 47
2019-03-29 15:00:00 12.7 9 Este 23 Sur 0 -- -- 47
2019-03-29 14:00:00 11.9 6 Este 15 Sudeste 0 -- -- 49
2019-03-29 13:00:00 11.7 5 Sudoeste 19 Este 0 -- -- 49
2019-03-29 12:00:00 11.8 6 Este 22 Sudeste 0 -- -- 50
2019-03-29 11:00:00 11.7 6 Este 23 Este 0 -- -- 56
2019-03-29 10:00:00 10.5 8 Este 17 Este 0 -- -- 57
2019-03-29 09:00:00 6 2 Sudeste 8 Sudoeste 0 -- -- 73
2019-03-29 08:00:00 0.6 2 Sudoeste 6 Sudoeste 0 -- -- 96
2019-03-29 07:00:00 -1.4 0 Calma 5 Sur 0 -- -- 94
2019-03-29 06:00:00 0 3 Sudoeste 10 Este 0 -- -- 88
2019-03-29 05:00:00 1.8 6 Este 10 Este 0 -- -- 79
2019-03-29 04:00:00 -0.9 0 Calma 4 Sudeste 0 -- -- 97
2019-03-29 03:00:00 -0.4 0 Calma 3 Sur 0 -- -- 96
2019-03-29 02:00:00 0.1 0 Calma 3 Sur 0 -- -- 94
2019-03-29 01:00:00 1 0 Calma 3 Sur 0 -- -- 93
2019-03-29 00:00:00 2.1 0 Calma 4 Sudoeste 0 -- -- 89
2019-03-28 23:00:00 4.4 2 Norte 8 Norte 0 -- -- 83
2019-03-28 22:00:00 6 0 Calma 2 Sur 0 -- -- 80
2019-03-28 21:00:00 6.2 0 Calma 4 Sur 0 -- -- 79
2019-03-28 20:00:00 8 0 Calma 10 Sudeste 0 -- -- 72
2019-03-28 19:00:00 9.3 5 Este 14 Nordeste 0 -- -- 67
2019-03-28 18:00:00 11.2 6 Nordeste 19 Sudeste 0 -- -- 61
2019-03-28 17:00:00 12.5 8 Sudeste 26 Este 0 -- -- 54
2019-03-28 16:00:00 14.3 9 Sudeste 22 Este 0 -- -- 43
2019-03-28 15:00:00 14.7 10 Este 22 Nordeste 0 -- -- 37
2019-03-28 14:00:00 14.3 7 Sudeste 20 Este 0 -- -- 39
2019-03-28 13:00:00 13.6 9 Sudeste 20 Este 0 -- -- 35
2019-03-28 12:00:00 13.1 5 Sudeste 19 Este 0 -- -- 40
2019-03-28 11:00:00 11.7 5 Sudoeste 17 Oeste 0 -- -- 39
2019-03-28 10:00:00 9.5 8 Oeste 15 Oeste 0 -- -- 46
2019-03-28 09:00:00 4.2 4 Sur 6 Sur 0 -- -- 69
2019-03-28 08:00:00 -1.5 0 Calma 4 Sudoeste 0 -- -- 93
2019-03-28 07:00:00 -3.6 2 Sur 4 Sudoeste 0 -- -- 91
2019-03-28 06:00:00 -3.4 2 Sur 4 Sur 0 -- -- 86
2019-03-28 05:00:00 -2.5 0 Calma 5 Oeste 0 -- -- 84
2019-03-28 04:00:00 -0.9 0 Calma 7 Nordeste 0 -- -- 77
2019-03-28 03:00:00 0.3 5 Este 13 Norte 0 -- -- 68
2019-03-28 02:00:00 -0.5 3 Este 8 Este 0 -- -- 75
2019-03-28 01:00:00 -0.4 2 Sur 4 Sudeste 0 -- -- 76
2019-03-28 00:00:00 1.8 0 Calma 11 Este 0 -- -- 68
2019-03-27 23:00:00 3.2 5 Nordeste 14 Norte 0 -- -- 61
2019-03-27 22:00:00 2.4 2 Este 5 Sudeste 0 -- -- 67
2019-03-27 21:00:00 4.3 0 Calma 6 Este 0 -- -- 61
2019-03-27 20:00:00 6.1 0 Calma 9 Este 0 -- -- 56
2019-03-27 19:00:00 10.5 6 Este 19 Este 0 -- -- 39
2019-03-27 18:00:00 12.5 7 Este 26 Este 0 -- -- 34
2019-03-27 17:00:00 14.1 9 Este 21 Sudeste 0 -- -- 26
2019-03-27 16:00:00 14.7 8 Este 22 Este 0 -- -- 26
2019-03-27 15:00:00 15.3 9 Sudeste 23 Este 0 -- -- 25
2019-03-27 14:00:00 14.8 11 Este 22 Este 0 -- -- 24
2019-03-27 13:00:00 14.5 9 Este 21 Este 0 -- -- 25
2019-03-27 12:00:00 13.6 7 Este 15 Sudeste 0 -- -- 28
2019-03-27 11:00:00 12.4 6 Sudoeste 19 Oeste 0 -- -- 28
2019-03-27 10:00:00 8.7 12 Sudoeste 20 Sudoeste 0 -- -- 40
2019-03-27 09:00:00 3.1 10 Sudoeste 19 Sudoeste 0 -- -- 46
2019-03-27 08:00:00 -2.1 4 Sur 6 Sur 0 -- -- 66
2019-03-27 07:00:00 -5 2 Sur 5 Sur 0 -- -- 77
2019-03-27 06:00:00 -4.5 2 Sudoeste 5 Oeste 0 -- -- 73
2019-03-27 05:00:00 -3.7 2 Sudoeste 5 Sur 0 -- -- 68
2019-03-27 04:00:00 -3 0 Calma 5 Nordeste 0 -- -- 65
2019-03-27 03:00:00 -2.5 2 Sudoeste 8 Sudeste 0 -- -- 67
2019-03-27 02:00:00 -1.4 2 Oeste 6 Sur 0 -- -- 61
2019-03-27 01:00:00 0.7 2 Noroeste 13 Sudoeste 0 -- -- 52
2019-03-27 00:00:00 6.4 5 Sudoeste 33 Norte 0 -- -- 32